sensor_id;sensor_type;location;lat;lon;timestamp;P1;durP1;ratioP1;P2;durP2;ratioP2
13816;SDS011;6979;52.116;5.286;2023-07-16T00:00:59;3.57;;;2.50;;
13816;SDS011;6979;52.116;5.286;2023-07-16T00:03:26;3.93;;;2.67;;
13816;SDS011;6979;52.116;5.286;2023-07-16T00:05:55;2.83;;;2.30;;
13816;SDS011;6979;52.116;5.286;2023-07-16T00:08:22;6.00;;;2.53;;
13816;SDS011;6979;52.116;5.286;2023-07-16T00:10:49;3.57;;;2.63;;
13816;SDS011;6979;52.116;5.286;2023-07-16T00:13:16;4.30;;;2.60;;
13816;SDS011;6979;52.116;5.286;2023-07-16T00:15:43;4.30;;;2.40;;
13816;SDS011;6979;52.116;5.286;2023-07-16T00:18:10;5.20;;;2.67;;
13816;SDS011;6979;52.116;5.286;2023-07-16T00:20:37;4.93;;;2.90;;
13816;SDS011;6979;52.116;5.286;2023-07-16T00:23:05;4.93;;;2.40;;
13816;SDS011;6979;52.116;5.286;2023-07-16T00:25:32;3.77;;;2.60;;
13816;SDS011;6979;52.116;5.286;2023-07-16T00:28:00;2.83;;;2.30;;
13816;SDS011;6979;52.116;5.286;2023-07-16T00:30:27;4.97;;;3.03;;
13816;SDS011;6979;52.116;5.286;2023-07-16T00:32:54;3.70;;;2.73;;
13816;SDS011;6979;52.116;5.286;2023-07-16T00:35:21;6.33;;;3.73;;
13816;SDS011;6979;52.116;5.286;2023-07-16T00:37:48;4.23;;;2.90;;
13816;SDS011;6979;52.116;5.286;2023-07-16T00:40:17;4.37;;;2.50;;
13816;SDS011;6979;52.116;5.286;2023-07-16T00:42:47;4.50;;;2.70;;
13816;SDS011;6979;52.116;5.286;2023-07-16T00:45:14;4.80;;;2.80;;
13816;SDS011;6979;52.116;5.286;2023-07-16T00:47:41;4.03;;;2.90;;
13816;SDS011;6979;52.116;5.286;2023-07-16T00:50:10;6.00;;;3.17;;
13816;SDS011;6979;52.116;5.286;2023-07-16T00:52:37;7.03;;;3.80;;
13816;SDS011;6979;52.116;5.286;2023-07-16T00:55:06;6.07;;;3.07;;
13816;SDS011;6979;52.116;5.286;2023-07-16T00:57:37;3.57;;;2.90;;
13816;SDS011;6979;52.116;5.286;2023-07-16T01:00:05;4.53;;;2.90;;
13816;SDS011;6979;52.116;5.286;2023-07-16T01:02:34;3.70;;;2.60;;
13816;SDS011;6979;52.116;5.286;2023-07-16T01:05:01;4.63;;;2.60;;
13816;SDS011;6979;52.116;5.286;2023-07-16T01:07:29;5.20;;;3.20;;
13816;SDS011;6979;52.116;5.286;2023-07-16T01:09:58;2.87;;;2.57;;
13816;SDS011;6979;52.116;5.286;2023-07-16T01:12:25;4.33;;;2.97;;
13816;SDS011;6979;52.116;5.286;2023-07-16T01:14:55;4.13;;;3.23;;
13816;SDS011;6979;52.116;5.286;2023-07-16T01:17:23;5.37;;;3.20;;
13816;SDS011;6979;52.116;5.286;2023-07-16T01:19:53;3.53;;;2.90;;
13816;SDS011;6979;52.116;5.286;2023-07-16T01:22:25;4.37;;;2.90;;
13816;SDS011;6979;52.116;5.286;2023-07-16T01:25:08;3.40;;;2.70;;
13816;SDS011;6979;52.116;5.286;2023-07-16T01:27:59;4.17;;;2.73;;
13816;SDS011;6979;52.116;5.286;2023-07-16T01:30:59;4.60;;;3.33;;
13816;SDS011;6979;52.116;5.286;2023-07-16T01:33:27;16.43;;;10.23;;
13816;SDS011;6979;52.116;5.286;2023-07-16T01:35:57;4.43;;;4.03;;
13816;SDS011;6979;52.116;5.286;2023-07-16T01:38:25;5.53;;;3.90;;
13816;SDS011;6979;52.116;5.286;2023-07-16T01:40:52;3.97;;;2.77;;
13816;SDS011;6979;52.116;5.286;2023-07-16T01:43:19;6.10;;;3.50;;
13816;SDS011;6979;52.116;5.286;2023-07-16T01:45:47;5.90;;;3.90;;
13816;SDS011;6979;52.116;5.286;2023-07-16T01:48:21;4.13;;;3.30;;
13816;SDS011;6979;52.116;5.286;2023-07-16T01:50:56;4.77;;;3.07;;
13816;SDS011;6979;52.116;5.286;2023-07-16T01:53:24;7.47;;;3.20;;
13816;SDS011;6979;52.116;5.286;2023-07-16T01:55:51;6.07;;;3.00;;
13816;SDS011;6979;52.116;5.286;2023-07-16T01:58:19;4.00;;;3.33;;
13816;SDS011;6979;52.116;5.286;2023-07-16T02:00:49;3.53;;;3.20;;
13816;SDS011;6979;52.116;5.286;2023-07-16T02:03:17;4.70;;;3.40;;
13816;SDS011;6979;52.116;5.286;2023-07-16T02:05:45;6.70;;;3.20;;
13816;SDS011;6979;52.116;5.286;2023-07-16T02:08:16;4.60;;;3.70;;
13816;SDS011;6979;52.116;5.286;2023-07-16T02:10:43;4.37;;;2.90;;
13816;SDS011;6979;52.116;5.286;2023-07-16T02:13:14;5.07;;;3.90;;
13816;SDS011;6979;52.116;5.286;2023-07-16T02:15:41;5.80;;;4.23;;
13816;SDS011;6979;52.116;5.286;2023-07-16T02:18:09;6.87;;;3.70;;
13816;SDS011;6979;52.116;5.286;2023-07-16T02:20:37;5.07;;;4.00;;
13816;SDS011;6979;52.116;5.286;2023-07-16T02:23:04;5.40;;;4.80;;
13816;SDS011;6979;52.116;5.286;2023-07-16T02:25:32;4.37;;;3.70;;
13816;SDS011;6979;52.116;5.286;2023-07-16T02:27:59;4.87;;;4.23;;
13816;SDS011;6979;52.116;5.286;2023-07-16T02:30:32;6.37;;;4.30;;
13816;SDS011;6979;52.116;5.286;2023-07-16T02:33:01;6.87;;;3.63;;
13816;SDS011;6979;52.116;5.286;2023-07-16T02:35:30;5.70;;;4.00;;
13816;SDS011;6979;52.116;5.286;2023-07-16T02:37:58;9.40;;;4.17;;
13816;SDS011;6979;52.116;5.286;2023-07-16T02:40:25;6.87;;;4.17;;
13816;SDS011;6979;52.116;5.286;2023-07-16T02:42:52;7.63;;;4.10;;
13816;SDS011;6979;52.116;5.286;2023-07-16T02:45:21;5.37;;;3.83;;
13816;SDS011;6979;52.116;5.286;2023-07-16T02:47:48;5.67;;;4.03;;
13816;SDS011;6979;52.116;5.286;2023-07-16T02:50:15;8.03;;;5.23;;
13816;SDS011;6979;52.116;5.286;2023-07-16T02:52:42;7.23;;;4.10;;
13816;SDS011;6979;52.116;5.286;2023-07-16T02:55:10;6.97;;;4.37;;
13816;SDS011;6979;52.116;5.286;2023-07-16T02:57:37;6.13;;;4.23;;
13816;SDS011;6979;52.116;5.286;2023-07-16T03:00:07;5.13;;;3.73;;
13816;SDS011;6979;52.116;5.286;2023-07-16T03:02:34;6.37;;;3.80;;
13816;SDS011;6979;52.116;5.286;2023-07-16T03:05:01;5.50;;;4.07;;
13816;SDS011;6979;52.116;5.286;2023-07-16T03:07:28;7.00;;;3.80;;
13816;SDS011;6979;52.116;5.286;2023-07-16T03:09:55;5.97;;;3.80;;
13816;SDS011;6979;52.116;5.286;2023-07-16T03:12:26;6.13;;;4.27;;
13816;SDS011;6979;52.116;5.286;2023-07-16T03:14:56;4.90;;;3.73;;
13816;SDS011;6979;52.116;5.286;2023-07-16T03:17:23;5.97;;;3.87;;
13816;SDS011;6979;52.116;5.286;2023-07-16T03:19:50;5.07;;;3.93;;
13816;SDS011;6979;52.116;5.286;2023-07-16T03:22:17;4.70;;;3.57;;
13816;SDS011;6979;52.116;5.286;2023-07-16T03:24:44;3.63;;;3.00;;
13816;SDS011;6979;52.116;5.286;2023-07-16T03:27:16;6.47;;;3.60;;
13816;SDS011;6979;52.116;5.286;2023-07-16T03:29:45;6.83;;;3.90;;
13816;SDS011;6979;52.116;5.286;2023-07-16T03:32:14;6.10;;;3.17;;
13816;SDS011;6979;52.116;5.286;2023-07-16T03:34:41;4.87;;;3.60;;
13816;SDS011;6979;52.116;5.286;2023-07-16T03:37:08;8.97;;;6.20;;
13816;SDS011;6979;52.116;5.286;2023-07-16T03:39:35;5.03;;;4.03;;
13816;SDS011;6979;52.116;5.286;2023-07-16T03:42:02;7.20;;;3.70;;
13816;SDS011;6979;52.116;5.286;2023-07-16T03:44:30;6.60;;;4.37;;
13816;SDS011;6979;52.116;5.286;2023-07-16T03:47:03;4.03;;;3.53;;
13816;SDS011;6979;52.116;5.286;2023-07-16T03:49:30;6.27;;;3.27;;
13816;SDS011;6979;52.116;5.286;2023-07-16T03:52:00;4.60;;;3.60;;
13816;SDS011;6979;52.116;5.286;2023-07-16T03:54:28;5.17;;;3.80;;
13816;SDS011;6979;52.116;5.286;2023-07-16T03:56:55;4.97;;;3.30;;
13816;SDS011;6979;52.116;5.286;2023-07-16T03:59:24;9.07;;;3.97;;
13816;SDS011;6979;52.116;5.286;2023-07-16T04:01:51;5.07;;;3.40;;
13816;SDS011;6979;52.116;5.286;2023-07-16T04:04:21;5.30;;;3.30;;
13816;SDS011;6979;52.116;5.286;2023-07-16T04:06:52;4.50;;;4.03;;
13816;SDS011;6979;52.116;5.286;2023-07-16T04:09:21;4.00;;;3.60;;
13816;SDS011;6979;52.116;5.286;2023-07-16T04:11:48;5.20;;;3.90;;
13816;SDS011;6979;52.116;5.286;2023-07-16T04:14:15;6.13;;;4.27;;
13816;SDS011;6979;52.116;5.286;2023-07-16T04:16:44;5.43;;;4.33;;
13816;SDS011;6979;52.116;5.286;2023-07-16T04:19:13;5.93;;;3.97;;
13816;SDS011;6979;52.116;5.286;2023-07-16T04:21:41;5.23;;;4.47;;
13816;SDS011;6979;52.116;5.286;2023-07-16T04:24:08;10.33;;;4.50;;
13816;SDS011;6979;52.116;5.286;2023-07-16T04:26:35;8.83;;;5.57;;
13816;SDS011;6979;52.116;5.286;2023-07-16T04:29:02;5.43;;;4.27;;
13816;SDS011;6979;52.116;5.286;2023-07-16T04:31:29;7.20;;;4.43;;
13816;SDS011;6979;52.116;5.286;2023-07-16T04:33:56;5.53;;;4.80;;
13816;SDS011;6979;52.116;5.286;2023-07-16T04:36:23;5.50;;;4.50;;
13816;SDS011;6979;52.116;5.286;2023-07-16T04:38:51;5.30;;;4.80;;
13816;SDS011;6979;52.116;5.286;2023-07-16T04:41:18;5.73;;;5.00;;
13816;SDS011;6979;52.116;5.286;2023-07-16T04:43:45;7.73;;;4.80;;
13816;SDS011;6979;52.116;5.286;2023-07-16T04:46:12;8.87;;;5.50;;
13816;SDS011;6979;52.116;5.286;2023-07-16T04:48:40;4.93;;;4.43;;
13816;SDS011;6979;52.116;5.286;2023-07-16T04:51:07;4.73;;;4.33;;
13816;SDS011;6979;52.116;5.286;2023-07-16T04:53:34;7.57;;;5.20;;
13816;SDS011;6979;52.116;5.286;2023-07-16T04:56:03;6.33;;;5.33;;
13816;SDS011;6979;52.116;5.286;2023-07-16T04:58:35;6.87;;;4.60;;
13816;SDS011;6979;52.116;5.286;2023-07-16T05:01:05;6.93;;;4.60;;
13816;SDS011;6979;52.116;5.286;2023-07-16T05:03:32;5.93;;;4.77;;
13816;SDS011;6979;52.116;5.286;2023-07-16T05:05:58;8.07;;;5.40;;
13816;SDS011;6979;52.116;5.286;2023-07-16T05:08:25;6.77;;;4.77;;
13816;SDS011;6979;52.116;5.286;2023-07-16T05:10:52;5.70;;;4.83;;
13816;SDS011;6979;52.116;5.286;2023-07-16T05:13:21;6.67;;;5.27;;
13816;SDS011;6979;52.116;5.286;2023-07-16T05:15:49;7.37;;;5.50;;
13816;SDS011;6979;52.116;5.286;2023-07-16T05:18:16;7.00;;;5.53;;
13816;SDS011;6979;52.116;5.286;2023-07-16T05:20:46;5.77;;;5.23;;
13816;SDS011;6979;52.116;5.286;2023-07-16T05:23:13;6.57;;;6.07;;
13816;SDS011;6979;52.116;5.286;2023-07-16T05:25:45;7.03;;;5.23;;
13816;SDS011;6979;52.116;5.286;2023-07-16T05:28:13;8.07;;;5.03;;
13816;SDS011;6979;52.116;5.286;2023-07-16T05:30:41;8.03;;;5.67;;
13816;SDS011;6979;52.116;5.286;2023-07-16T05:33:10;6.70;;;5.57;;
13816;SDS011;6979;52.116;5.286;2023-07-16T05:35:37;6.03;;;5.50;;
13816;SDS011;6979;52.116;5.286;2023-07-16T05:38:05;7.30;;;5.27;;
13816;SDS011;6979;52.116;5.286;2023-07-16T05:40:32;7.40;;;5.33;;
13816;SDS011;6979;52.116;5.286;2023-07-16T05:42:59;6.17;;;5.40;;
13816;SDS011;6979;52.116;5.286;2023-07-16T05:45:26;8.73;;;6.43;;
13816;SDS011;6979;52.116;5.286;2023-07-16T05:47:54;9.37;;;6.33;;
13816;SDS011;6979;52.116;5.286;2023-07-16T05:50:21;8.70;;;6.07;;
13816;SDS011;6979;52.116;5.286;2023-07-16T05:52:48;13.20;;;11.50;;
13816;SDS011;6979;52.116;5.286;2023-07-16T05:55:17;7.37;;;6.33;;
13816;SDS011;6979;52.116;5.286;2023-07-16T05:57:47;6.57;;;5.97;;
13816;SDS011;6979;52.116;5.286;2023-07-16T06:00:14;5.40;;;4.90;;
13816;SDS011;6979;52.116;5.286;2023-07-16T06:02:42;6.93;;;5.53;;
13816;SDS011;6979;52.116;5.286;2023-07-16T06:05:10;7.90;;;6.03;;
13816;SDS011;6979;52.116;5.286;2023-07-16T06:07:37;8.23;;;7.17;;
13816;SDS011;6979;52.116;5.286;2023-07-16T06:10:05;7.50;;;6.00;;
13816;SDS011;6979;52.116;5.286;2023-07-16T06:12:33;6.43;;;5.53;;
13816;SDS011;6979;52.116;5.286;2023-07-16T06:15:00;9.47;;;5.90;;
13816;SDS011;6979;52.116;5.286;2023-07-16T06:17:30;6.23;;;5.53;;
13816;SDS011;6979;52.116;5.286;2023-07-16T06:19:56;10.30;;;5.40;;
13816;SDS011;6979;52.116;5.286;2023-07-16T06:22:28;6.53;;;5.70;;
13816;SDS011;6979;52.116;5.286;2023-07-16T06:24:57;6.03;;;5.43;;
13816;SDS011;6979;52.116;5.286;2023-07-16T06:27:25;8.10;;;5.63;;
13816;SDS011;6979;52.116;5.286;2023-07-16T06:29:52;7.77;;;5.80;;
13816;SDS011;6979;52.116;5.286;2023-07-16T06:32:19;7.33;;;5.80;;
13816;SDS011;6979;52.116;5.286;2023-07-16T06:34:46;7.40;;;5.67;;
13816;SDS011;6979;52.116;5.286;2023-07-16T06:37:13;8.00;;;6.30;;
13816;SDS011;6979;52.116;5.286;2023-07-16T06:39:43;8.97;;;6.63;;
13816;SDS011;6979;52.116;5.286;2023-07-16T06:42:12;5.87;;;5.20;;
13816;SDS011;6979;52.116;5.286;2023-07-16T06:44:39;7.37;;;5.93;;
13816;SDS011;6979;52.116;5.286;2023-07-16T06:47:06;8.57;;;6.27;;
13816;SDS011;6979;52.116;5.286;2023-07-16T06:49:33;7.23;;;5.90;;
13816;SDS011;6979;52.116;5.286;2023-07-16T06:52:00;6.53;;;5.83;;
13816;SDS011;6979;52.116;5.286;2023-07-16T06:54:27;6.73;;;5.53;;
13816;SDS011;6979;52.116;5.286;2023-07-16T06:56:56;6.83;;;5.07;;
13816;SDS011;6979;52.116;5.286;2023-07-16T06:59:22;6.97;;;5.77;;
13816;SDS011;6979;52.116;5.286;2023-07-16T07:01:49;6.30;;;5.70;;
13816;SDS011;6979;52.116;5.286;2023-07-16T07:04:17;6.33;;;5.00;;
13816;SDS011;6979;52.116;5.286;2023-07-16T07:06:43;7.07;;;5.50;;
13816;SDS011;6979;52.116;5.286;2023-07-16T07:09:10;8.63;;;5.23;;
13816;SDS011;6979;52.116;5.286;2023-07-16T07:11:37;8.70;;;5.47;;
13816;SDS011;6979;52.116;5.286;2023-07-16T07:14:06;8.37;;;5.87;;
13816;SDS011;6979;52.116;5.286;2023-07-16T07:16:32;7.40;;;5.07;;
13816;SDS011;6979;52.116;5.286;2023-07-16T07:18:59;5.37;;;4.90;;
13816;SDS011;6979;52.116;5.286;2023-07-16T07:21:27;7.37;;;5.43;;
13816;SDS011;6979;52.116;5.286;2023-07-16T07:23:55;8.80;;;5.73;;
13816;SDS011;6979;52.116;5.286;2023-07-16T07:26:22;9.70;;;5.47;;
13816;SDS011;6979;52.116;5.286;2023-07-16T07:28:51;6.33;;;5.17;;
13816;SDS011;6979;52.116;5.286;2023-07-16T07:31:20;8.27;;;6.40;;
13816;SDS011;6979;52.116;5.286;2023-07-16T07:33:47;8.17;;;5.37;;
13816;SDS011;6979;52.116;5.286;2023-07-16T07:36:14;6.33;;;5.53;;
13816;SDS011;6979;52.116;5.286;2023-07-16T07:38:41;11.37;;;10.13;;
13816;SDS011;6979;52.116;5.286;2023-07-16T07:41:08;9.33;;;6.17;;
13816;SDS011;6979;52.116;5.286;2023-07-16T07:43:35;7.00;;;5.57;;
13816;SDS011;6979;52.116;5.286;2023-07-16T07:46:02;7.33;;;6.60;;
13816;SDS011;6979;52.116;5.286;2023-07-16T07:48:30;6.73;;;6.07;;
13816;SDS011;6979;52.116;5.286;2023-07-16T07:50:57;6.97;;;6.00;;
13816;SDS011;6979;52.116;5.286;2023-07-16T07:53:24;8.57;;;5.90;;
13816;SDS011;6979;52.116;5.286;2023-07-16T07:55:51;7.20;;;5.63;;
13816;SDS011;6979;52.116;5.286;2023-07-16T07:58:18;6.80;;;5.53;;
13816;SDS011;6979;52.116;5.286;2023-07-16T08:00:45;7.13;;;6.00;;
13816;SDS011;6979;52.116;5.286;2023-07-16T08:03:14;7.10;;;5.53;;
13816;SDS011;6979;52.116;5.286;2023-07-16T08:05:44;9.43;;;5.70;;
13816;SDS011;6979;52.116;5.286;2023-07-16T08:08:14;9.47;;;5.50;;
13816;SDS011;6979;52.116;5.286;2023-07-16T08:10:53;6.60;;;6.00;;
13816;SDS011;6979;52.116;5.286;2023-07-16T08:13:21;5.13;;;4.73;;
13816;SDS011;6979;52.116;5.286;2023-07-16T08:15:47;6.73;;;5.90;;
13816;SDS011;6979;52.116;5.286;2023-07-16T08:18:17;8.53;;;5.67;;
13816;SDS011;6979;52.116;5.286;2023-07-16T08:20:47;8.17;;;6.47;;
13816;SDS011;6979;52.116;5.286;2023-07-16T08:23:14;5.80;;;5.13;;
13816;SDS011;6979;52.116;5.286;2023-07-16T08:25:42;7.07;;;5.20;;
13816;SDS011;6979;52.116;5.286;2023-07-16T08:28:09;7.70;;;6.10;;
13816;SDS011;6979;52.116;5.286;2023-07-16T08:30:36;6.90;;;6.30;;
13816;SDS011;6979;52.116;5.286;2023-07-16T08:33:03;6.93;;;5.53;;
13816;SDS011;6979;52.116;5.286;2023-07-16T08:35:31;7.50;;;6.70;;
13816;SDS011;6979;52.116;5.286;2023-07-16T08:37:59;7.10;;;5.33;;
13816;SDS011;6979;52.116;5.286;2023-07-16T08:40:26;7.70;;;5.87;;
13816;SDS011;6979;52.116;5.286;2023-07-16T08:42:53;6.33;;;5.83;;
13816;SDS011;6979;52.116;5.286;2023-07-16T08:45:22;8.50;;;6.40;;
13816;SDS011;6979;52.116;5.286;2023-07-16T08:47:52;7.20;;;6.53;;
13816;SDS011;6979;52.116;5.286;2023-07-16T08:50:19;6.00;;;5.40;;
13816;SDS011;6979;52.116;5.286;2023-07-16T08:52:48;6.33;;;5.63;;
13816;SDS011;6979;52.116;5.286;2023-07-16T08:55:17;6.63;;;6.10;;
13816;SDS011;6979;52.116;5.286;2023-07-16T08:57:44;6.20;;;5.60;;
13816;SDS011;6979;52.116;5.286;2023-07-16T09:00:12;6.60;;;5.83;;
13816;SDS011;6979;52.116;5.286;2023-07-16T09:02:43;7.50;;;6.27;;
13816;SDS011;6979;52.116;5.286;2023-07-16T09:05:10;9.27;;;6.67;;
13816;SDS011;6979;52.116;5.286;2023-07-16T09:07:37;7.47;;;5.90;;
13816;SDS011;6979;52.116;5.286;2023-07-16T09:10:05;5.67;;;5.17;;
13816;SDS011;6979;52.116;5.286;2023-07-16T09:12:34;6.53;;;5.90;;
13816;SDS011;6979;52.116;5.286;2023-07-16T09:15:02;6.57;;;5.93;;
13816;SDS011;6979;52.116;5.286;2023-07-16T09:17:29;5.73;;;5.23;;
13816;SDS011;6979;52.116;5.286;2023-07-16T09:19:56;7.97;;;6.27;;
13816;SDS011;6979;52.116;5.286;2023-07-16T09:22:23;8.73;;;6.33;;
13816;SDS011;6979;52.116;5.286;2023-07-16T09:24:50;6.13;;;5.17;;
13816;SDS011;6979;52.116;5.286;2023-07-16T09:27:27;6.10;;;5.50;;
13816;SDS011;6979;52.116;5.286;2023-07-16T09:29:55;7.30;;;5.77;;
13816;SDS011;6979;52.116;5.286;2023-07-16T09:32:32;6.57;;;5.97;;
13816;SDS011;6979;52.116;5.286;2023-07-16T09:34:59;5.47;;;4.70;;
13816;SDS011;6979;52.116;5.286;2023-07-16T09:37:26;6.20;;;5.60;;
13816;SDS011;6979;52.116;5.286;2023-07-16T09:39:54;7.90;;;5.00;;
13816;SDS011;6979;52.116;5.286;2023-07-16T09:42:21;5.63;;;4.80;;
13816;SDS011;6979;52.116;5.286;2023-07-16T09:44:49;5.90;;;5.33;;
13816;SDS011;6979;52.116;5.286;2023-07-16T09:47:20;5.77;;;5.37;;
13816;SDS011;6979;52.116;5.286;2023-07-16T09:49:50;6.97;;;5.63;;
13816;SDS011;6979;52.116;5.286;2023-07-16T09:52:18;8.03;;;6.20;;
13816;SDS011;6979;52.116;5.286;2023-07-16T09:54:49;9.37;;;6.17;;
13816;SDS011;6979;52.116;5.286;2023-07-16T09:57:18;6.73;;;5.50;;
13816;SDS011;6979;52.116;5.286;2023-07-16T09:59:48;6.87;;;5.50;;
13816;SDS011;6979;52.116;5.286;2023-07-16T10:02:18;6.90;;;6.30;;
13816;SDS011;6979;52.116;5.286;2023-07-16T10:04:49;6.00;;;5.50;;
13816;SDS011;6979;52.116;5.286;2023-07-16T10:07:20;6.13;;;5.23;;
13816;SDS011;6979;52.116;5.286;2023-07-16T10:09:51;6.43;;;5.43;;
13816;SDS011;6979;52.116;5.286;2023-07-16T10:12:20;7.67;;;5.87;;
13816;SDS011;6979;52.116;5.286;2023-07-16T10:14:48;7.57;;;5.87;;
13816;SDS011;6979;52.116;5.286;2023-07-16T10:17:23;5.10;;;4.70;;
13816;SDS011;6979;52.116;5.286;2023-07-16T10:19:55;7.93;;;5.70;;
13816;SDS011;6979;52.116;5.286;2023-07-16T10:22:35;6.13;;;4.80;;
13816;SDS011;6979;52.116;5.286;2023-07-16T10:25:04;6.03;;;4.90;;
13816;SDS011;6979;52.116;5.286;2023-07-16T10:27:45;5.30;;;4.57;;
13816;SDS011;6979;52.116;5.286;2023-07-16T10:30:13;6.13;;;5.13;;
13816;SDS011;6979;52.116;5.286;2023-07-16T10:32:41;8.07;;;5.10;;
13816;SDS011;6979;52.116;5.286;2023-07-16T10:35:10;5.13;;;4.63;;
13816;SDS011;6979;52.116;5.286;2023-07-16T10:37:38;5.53;;;4.93;;
13816;SDS011;6979;52.116;5.286;2023-07-16T10:40:09;6.60;;;4.87;;
13816;SDS011;6979;52.116;5.286;2023-07-16T10:42:39;6.73;;;5.07;;
13816;SDS011;6979;52.116;5.286;2023-07-16T10:45:07;5.10;;;4.60;;
13816;SDS011;6979;52.116;5.286;2023-07-16T10:47:35;7.07;;;5.03;;
13816;SDS011;6979;52.116;5.286;2023-07-16T10:50:05;5.03;;;4.53;;
13816;SDS011;6979;52.116;5.286;2023-07-16T10:52:34;5.23;;;4.77;;
13816;SDS011;6979;52.116;5.286;2023-07-16T10:55:01;4.47;;;4.03;;
13816;SDS011;6979;52.116;5.286;2023-07-16T10:57:30;4.70;;;4.20;;
13816;SDS011;6979;52.116;5.286;2023-07-16T10:59:58;5.53;;;4.70;;
13816;SDS011;6979;52.116;5.286;2023-07-16T11:02:26;5.27;;;4.73;;
13816;SDS011;6979;52.116;5.286;2023-07-16T11:04:53;5.20;;;4.20;;
13816;SDS011;6979;52.116;5.286;2023-07-16T11:07:23;3.73;;;3.40;;
13816;SDS011;6979;52.116;5.286;2023-07-16T11:09:53;4.57;;;3.63;;
13816;SDS011;6979;52.116;5.286;2023-07-16T11:12:21;3.63;;;3.33;;
13816;SDS011;6979;52.116;5.286;2023-07-16T11:14:49;4.63;;;4.20;;
13816;SDS011;6979;52.116;5.286;2023-07-16T11:17:17;4.10;;;3.70;;
13816;SDS011;6979;52.116;5.286;2023-07-16T11:19:46;3.00;;;2.73;;
13816;SDS011;6979;52.116;5.286;2023-07-16T11:22:14;3.87;;;3.47;;
13816;SDS011;6979;52.116;5.286;2023-07-16T11:24:47;4.93;;;4.43;;
13816;SDS011;6979;52.116;5.286;2023-07-16T11:27:20;4.57;;;4.10;;
13816;SDS011;6979;52.116;5.286;2023-07-16T11:29:48;3.40;;;3.10;;
13816;SDS011;6979;52.116;5.286;2023-07-16T11:32:27;4.67;;;4.27;;
13816;SDS011;6979;52.116;5.286;2023-07-16T11:34:54;4.53;;;3.50;;
13816;SDS011;6979;52.116;5.286;2023-07-16T11:37:24;4.63;;;4.23;;
13816;SDS011;6979;52.116;5.286;2023-07-16T11:39:55;4.93;;;3.93;;
13816;SDS011;6979;52.116;5.286;2023-07-16T11:42:23;3.70;;;3.40;;
13816;SDS011;6979;52.116;5.286;2023-07-16T11:44:53;4.23;;;3.77;;
13816;SDS011;6979;52.116;5.286;2023-07-16T11:47:20;4.03;;;3.73;;
13816;SDS011;6979;52.116;5.286;2023-07-16T11:49:47;5.63;;;3.50;;
13816;SDS011;6979;52.116;5.286;2023-07-16T11:52:14;3.77;;;3.47;;
13816;SDS011;6979;52.116;5.286;2023-07-16T11:54:45;3.37;;;3.07;;
13816;SDS011;6979;52.116;5.286;2023-07-16T11:57:13;3.20;;;2.60;;
13816;SDS011;6979;52.116;5.286;2023-07-16T11:59:42;3.00;;;2.73;;
13816;SDS011;6979;52.116;5.286;2023-07-16T12:02:09;4.17;;;2.40;;
13816;SDS011;6979;52.116;5.286;2023-07-16T12:04:36;2.37;;;2.10;;
13816;SDS011;6979;52.116;5.286;2023-07-16T12:07:04;1.97;;;1.87;;
13816;SDS011;6979;52.116;5.286;2023-07-16T12:09:31;2.77;;;2.10;;
13816;SDS011;6979;52.116;5.286;2023-07-16T12:11:59;2.10;;;1.77;;
13816;SDS011;6979;52.116;5.286;2023-07-16T12:14:28;1.80;;;1.70;;
13816;SDS011;6979;52.116;5.286;2023-07-16T12:17:00;2.53;;;2.20;;
13816;SDS011;6979;52.116;5.286;2023-07-16T12:19:27;2.77;;;2.57;;
13816;SDS011;6979;52.116;5.286;2023-07-16T12:21:55;2.93;;;2.43;;
13816;SDS011;6979;52.116;5.286;2023-07-16T12:24:24;3.47;;;2.07;;
13816;SDS011;6979;52.116;5.286;2023-07-16T12:26:51;2.63;;;2.10;;
13816;SDS011;6979;52.116;5.286;2023-07-16T12:29:18;5.47;;;2.07;;
13816;SDS011;6979;52.116;5.286;2023-07-16T12:31:48;5.80;;;5.30;;
13816;SDS011;6979;52.116;5.286;2023-07-16T12:34:15;3.80;;;2.50;;
13816;SDS011;6979;52.116;5.286;2023-07-16T12:36:42;2.50;;;2.30;;
13816;SDS011;6979;52.116;5.286;2023-07-16T12:39:09;3.20;;;2.00;;
13816;SDS011;6979;52.116;5.286;2023-07-16T12:41:36;2.23;;;2.10;;
13816;SDS011;6979;52.116;5.286;2023-07-16T12:44:03;2.27;;;2.00;;
13816;SDS011;6979;52.116;5.286;2023-07-16T12:46:30;2.70;;;1.90;;
13816;SDS011;6979;52.116;5.286;2023-07-16T12:48:58;3.40;;;2.40;;
13816;SDS011;6979;52.116;5.286;2023-07-16T12:51:25;3.33;;;2.20;;
13816;SDS011;6979;52.116;5.286;2023-07-16T12:53:52;2.93;;;2.13;;
13816;SDS011;6979;52.116;5.286;2023-07-16T12:56:19;1.83;;;1.70;;
13816;SDS011;6979;52.116;5.286;2023-07-16T12:58:46;3.10;;;2.03;;
13816;SDS011;6979;52.116;5.286;2023-07-16T13:01:14;1.70;;;1.60;;
13816;SDS011;6979;52.116;5.286;2023-07-16T13:03:41;3.43;;;1.77;;
13816;SDS011;6979;52.116;5.286;2023-07-16T13:06:09;2.80;;;1.90;;
13816;SDS011;6979;52.116;5.286;2023-07-16T13:08:36;3.37;;;2.10;;
13816;SDS011;6979;52.116;5.286;2023-07-16T13:11:03;4.60;;;2.00;;
13816;SDS011;6979;52.116;5.286;2023-07-16T13:13:30;3.77;;;1.70;;
13816;SDS011;6979;52.116;5.286;2023-07-16T13:15:57;1.73;;;1.57;;
13816;SDS011;6979;52.116;5.286;2023-07-16T13:18:24;2.97;;;1.57;;
13816;SDS011;6979;52.116;5.286;2023-07-16T13:20:51;4.30;;;1.60;;
13816;SDS011;6979;52.116;5.286;2023-07-16T13:23:19;3.63;;;1.60;;
13816;SDS011;6979;52.116;5.286;2023-07-16T13:25:48;3.50;;;2.47;;
13816;SDS011;6979;52.116;5.286;2023-07-16T13:28:17;2.73;;;1.97;;
13816;SDS011;6979;52.116;5.286;2023-07-16T13:30:44;3.50;;;1.73;;
13816;SDS011;6979;52.116;5.286;2023-07-16T13:33:11;2.57;;;1.50;;
13816;SDS011;6979;52.116;5.286;2023-07-16T13:35:38;4.07;;;1.93;;
13816;SDS011;6979;52.116;5.286;2023-07-16T13:38:05;3.23;;;2.90;;
13816;SDS011;6979;52.116;5.286;2023-07-16T13:40:33;1.80;;;1.63;;
13816;SDS011;6979;52.116;5.286;2023-07-16T13:43:00;3.40;;;1.60;;
13816;SDS011;6979;52.116;5.286;2023-07-16T13:45:27;3.17;;;1.90;;
13816;SDS011;6979;52.116;5.286;2023-07-16T13:47:54;3.73;;;1.80;;
13816;SDS011;6979;52.116;5.286;2023-07-16T13:50:23;3.03;;;1.73;;
13816;SDS011;6979;52.116;5.286;2023-07-16T13:52:50;1.93;;;1.50;;
13816;SDS011;6979;52.116;5.286;2023-07-16T13:55:17;1.80;;;1.30;;
13816;SDS011;6979;52.116;5.286;2023-07-16T13:57:45;2.97;;;1.30;;
13816;SDS011;6979;52.116;5.286;2023-07-16T14:00:15;1.80;;;1.53;;
13816;SDS011;6979;52.116;5.286;2023-07-16T14:02:44;4.20;;;1.53;;
13816;SDS011;6979;52.116;5.286;2023-07-16T14:05:11;2.60;;;1.53;;
13816;SDS011;6979;52.116;5.286;2023-07-16T14:07:40;3.63;;;1.87;;
13816;SDS011;6979;52.116;5.286;2023-07-16T14:10:08;1.80;;;1.40;;
13816;SDS011;6979;52.116;5.286;2023-07-16T14:12:35;2.27;;;1.33;;
13816;SDS011;6979;52.116;5.286;2023-07-16T14:15:05;4.03;;;2.17;;
13816;SDS011;6979;52.116;5.286;2023-07-16T14:17:33;3.10;;;1.47;;
13816;SDS011;6979;52.116;5.286;2023-07-16T14:19:59;5.93;;;1.97;;
13816;SDS011;6979;52.116;5.286;2023-07-16T14:22:26;2.87;;;1.67;;
13816;SDS011;6979;52.116;5.286;2023-07-16T14:24:55;3.57;;;1.37;;
13816;SDS011;6979;52.116;5.286;2023-07-16T14:27:22;2.20;;;1.40;;
13816;SDS011;6979;52.116;5.286;2023-07-16T14:29:52;3.53;;;1.47;;
13816;SDS011;6979;52.116;5.286;2023-07-16T14:32:20;2.97;;;1.90;;
13816;SDS011;6979;52.116;5.286;2023-07-16T14:34:47;4.23;;;1.73;;
13816;SDS011;6979;52.116;5.286;2023-07-16T14:37:14;3.03;;;1.73;;
13816;SDS011;6979;52.116;5.286;2023-07-16T14:39:41;3.13;;;2.03;;
13816;SDS011;6979;52.116;5.286;2023-07-16T14:42:08;6.10;;;4.43;;
13816;SDS011;6979;52.116;5.286;2023-07-16T14:44:35;3.07;;;2.33;;
13816;SDS011;6979;52.116;5.286;2023-07-16T14:47:02;6.27;;;2.20;;
13816;SDS011;6979;52.116;5.286;2023-07-16T14:49:31;4.00;;;1.80;;
13816;SDS011;6979;52.116;5.286;2023-07-16T14:51:58;2.30;;;1.70;;
13816;SDS011;6979;52.116;5.286;2023-07-16T14:54:24;2.67;;;1.90;;
13816;SDS011;6979;52.116;5.286;2023-07-16T14:56:51;3.00;;;2.20;;
13816;SDS011;6979;52.116;5.286;2023-07-16T14:59:18;2.03;;;1.83;;
13816;SDS011;6979;52.116;5.286;2023-07-16T15:01:46;2.80;;;2.17;;
13816;SDS011;6979;52.116;5.286;2023-07-16T15:04:13;3.27;;;2.53;;
13816;SDS011;6979;52.116;5.286;2023-07-16T15:06:42;3.40;;;1.90;;